Decoded Metar for KMYJ ( in ) (IATA:) | Meteo·Mobile Aviation Weather
aviador You're here:

KMYJ Decoded Metar

in
Report Time2019-06-27 07:55:00
UTC Time2019-06-27 08:25:05
Flight Rules vfr VFR
Wind190° at 03 kt
W.Decomp.*RWY 18: 3.0 kt HW 0.5 kt RCW
RWY 24: 1.9 kt HW 2.3 kt LCW
Visibility9999 m
Phenomena:N/A
Clouds:N/A
Expected CloudBase > 400 ft AGL from Temp-Dew spread
CeilingNone
Temp19°C
Dew Point18°C (94% RH)
QNH1021 hPa
Raw Report
KMYJ 270755Z AUTO 19003KT 7SM CLR 19/18 A3014 RMK AO2=

Extra information for KMYJ:More info

Social comments